Time;durP1;ratioP1;P1;durP2;ratioP2;P2;SDS_P1;SDS_P2;PMS_P1;PMS_P2;Temp;Humidity;BMP_temperature;BMP_pressure;BME280_temperature;BME280_humidity;BME280_pressure;Samples;Min_cycle;Max_cycle;Signal;HPM_P1;HPM_P2
2023/10/07 00:02:39;;;;;;;21.52;8.95;;;;;;;9.93;100.00;101164.16;5590163;31;33801;-65
2023/10/07 00:05:44;;;;;;;19.00;8.93;;;;;;;9.92;100.00;101159.84;5589984;31;33110;-65
2023/10/07 00:08:50;;;;;;;22.60;9.07;;;;;;;9.88;100.00;101148.69;5590105;31;33922;-66
2023/10/07 00:11:54;;;;;;;18.33;8.95;;;;;;;9.85;100.00;101132.25;5590266;31;33768;-65
2023/10/07 00:14:57;;;;;;;19.65;8.82;;;;;;;9.82;100.00;101138.69;5576531;31;33832;-65
2023/10/07 00:18:04;;;;;;;19.75;8.60;;;;;;;9.75;100.00;101140.22;5589922;31;33885;-65
2023/10/07 00:21:15;;;;;;;22.02;9.00;;;;;;;9.69;100.00;101140.78;5576193;31;34883;-65
2023/10/07 00:24:19;;;;;;;19.50;8.68;;;;;;;9.68;100.00;101146.25;5589815;31;34679;-65
2023/10/07 00:27:30;;;;;;;16.25;8.15;;;;;;;9.66;100.00;101138.44;5576109;31;34532;-65
2023/10/07 00:30:34;;;;;;;20.37;8.50;;;;;;;9.72;100.00;101140.53;5589623;31;34308;-65
2023/10/07 00:36:58;;;;;;;25.92;9.00;;;;;;;9.70;100.00;101138.97;5589819;31;33814;-65
2023/10/07 00:40:14;;;;;;;24.02;8.43;;;;;;;9.70;100.00;101144.28;5589871;31;33850;-65
2023/10/07 00:43:25;;;;;;;18.60;8.77;;;;;;;9.66;100.00;101130.50;5589855;31;34191;-66
2023/10/07 00:46:28;;;;;;;18.02;8.82;;;;;;;9.62;100.00;101118.53;5589986;31;33790;-65
2023/10/07 00:50:10;;;;;;;18.23;9.05;;;;;;;9.58;100.00;101106.53;5576337;31;33767;-65
2023/10/07 00:53:08;;;;;;;17.25;8.63;;;;;;;9.55;100.00;101101.50;5587562;31;34339;-65
2023/10/07 00:56:14;;;;;;;23.67;9.10;;;;;;;9.58;100.00;101095.94;5589585;31;34490;-65
2023/10/07 00:59:19;;;;;;;16.80;8.40;;;;;;;9.53;100.00;101092.91;5589614;31;33833;-65
2023/10/07 01:02:31;;;;;;;22.83;9.50;;;;;;;9.49;100.00;101091.47;5589479;31;34049;-67
2023/10/07 01:05:35;;;;;;;18.73;9.20;;;;;;;9.53;100.00;101082.31;5589633;31;34593;-67
2023/10/07 01:08:45;;;;;;;18.75;9.30;;;;;;;9.49;100.00;101078.25;5589570;31;33964;-67
2023/10/07 01:11:57;;;;;;;20.75;8.93;;;;;;;9.42;100.00;101071.88;5589605;31;33940;-67
2023/10/07 01:15:03;;;;;;;22.87;9.20;;;;;;;9.39;100.00;101070.31;5589422;31;34614;-65
2023/10/07 01:18:06;;;;;;;18.55;9.35;;;;;;;9.38;100.00;101060.72;5589477;31;34647;-65
2023/10/07 01:21:12;;;;;;;19.23;9.45;;;;;;;9.36;100.00;101067.97;5589823;31;33776;-67
2023/10/07 01:24:15;;;;;;;17.17;9.00;;;;;;;9.34;100.00;101059.34;5589477;31;33860;-67
2023/10/07 01:30:30;;;;;;;18.55;9.07;;;;;;;9.29;100.00;101058.13;5589434;31;33841;-67
2023/10/07 01:33:48;;;;;;;16.95;9.02;;;;;;;9.33;100.00;101057.69;5589609;31;34170;-67
2023/10/07 01:36:52;;;;;;;16.35;9.07;;;;;;;9.30;100.00;101055.28;5589396;31;33885;-67
2023/10/07 01:39:55;;;;;;;21.12;9.57;;;;;;;9.30;100.00;101052.66;5575655;31;33875;-67
2023/10/07 01:42:57;;;;;;;20.33;9.35;;;;;;;9.30;100.00;101050.00;5589312;31;34782;-65
2023/10/07 01:46:10;;;;;;;18.00;9.10;;;;;;;9.32;100.00;101039.28;5589030;31;33965;-68
2023/10/07 01:49:17;;;;;;;21.33;9.75;;;;;;;9.31;100.00;101038.44;5589179;31;34503;-65
2023/10/07 01:52:24;;;;;;;20.15;10.00;;;;;;;9.32;100.00;101036.63;5589111;31;34941;-65
2023/10/07 01:55:27;;;;;;;20.60;9.90;;;;;;;9.37;100.00;101043.16;5589049;31;33772;-65
2023/10/07 01:58:31;;;;;;;21.92;10.05;;;;;;;9.37;100.00;101039.69;5589372;31;34823;-65
2023/10/07 02:01:35;;;;;;;25.88;10.43;;;;;;;9.37;100.00;101043.16;5588943;31;34467;-66
2023/10/07 02:04:38;;;;;;;19.73;9.43;;;;;;;9.37;100.00;101037.03;5587997;31;33979;-65
2023/10/07 02:07:43;;;;;;;19.20;10.00;;;;;;;9.37;100.00;101043.16;5588410;31;33822;-66
2023/10/07 02:10:52;;;;;;;22.37;9.93;;;;;;;9.31;100.00;101043.72;5588837;31;33819;-65
2023/10/07 02:13:58;;;;;;;20.27;9.77;;;;;;;9.33;100.00;101040.94;5588658;31;34717;-66
2023/10/07 02:17:01;;;;;;;21.48;9.82;;;;;;;9.36;100.00;101033.53;5588663;31;33867;-66
2023/10/07 02:20:22;;;;;;;19.50;10.38;;;;;;;9.41;100.00;101026.00;5588680;31;33835;-65
2023/10/07 02:23:40;;;;;;;18.95;9.68;;;;;;;9.40;100.00;101029.63;5588582;31;34119;-65
2023/10/07 02:26:43;;;;;;;18.50;9.80;;;;;;;9.40;100.00;101028.78;5588475;31;34059;-66
2023/10/07 02:29:57;;;;;;;21.80;9.57;;;;;;;9.38;100.00;101028.12;5588753;31;34583;-65
2023/10/07 02:33:01;;;;;;;26.42;10.63;;;;;;;9.38;100.00;101020.19;5587944;31;33980;-65
2023/10/07 02:36:04;;;;;;;22.65;10.15;;;;;;;9.37;100.00;101018.50;5588073;31;34502;-65
2023/10/07 02:39:19;;;;;;;21.52;10.02;;;;;;;9.31;100.00;101019.06;5588732;31;34075;-65
2023/10/07 02:42:28;;;;;;;21.87;9.75;;;;;;;9.29;100.00;101018.41;5588124;31;34605;-66
2023/10/07 02:45:39;;;;;;;21.05;10.02;;;;;;;9.29;100.00;101013.09;5588222;31;33900;-65
2023/10/07 02:48:42;;;;;;;25.92;10.15;;;;;;;9.26;100.00;101005.44;5574367;31;34263;-65
2023/10/07 02:51:46;;;;;;;20.58;9.50;;;;;;;9.24;100.00;101002.94;5588118;31;34066;-65
2023/10/07 02:55:12;;;;;;;20.55;9.50;;;;;;;9.23;100.00;100997.78;5574481;31;32023;-66
2023/10/07 02:58:18;;;;;;;18.33;8.98;;;;;;;9.23;100.00;100992.50;5588283;31;33718;-66
2023/10/07 03:01:25;;;;;;;21.75;10.32;;;;;;;9.24;100.00;101000.28;5587988;31;35229;-66
2023/10/07 03:04:34;;;;;;;19.17;9.70;;;;;;;9.24;100.00;100988.88;5587877;31;34493;-66
2023/10/07 03:07:41;;;;;;;21.27;9.57;;;;;;;9.21;100.00;100987.31;5587692;31;34763;-66
2023/10/07 03:10:54;;;;;;;19.85;9.70;;;;;;;9.23;100.00;100981.91;5587795;31;33807;-66
2023/10/07 03:13:57;;;;;;;19.05;9.13;;;;;;;9.19;100.00;100986.66;5587754;31;33962;-66
2023/10/07 03:17:01;;;;;;;20.88;9.55;;;;;;;9.17;100.00;100985.94;5588594;31;34868;-66
2023/10/07 03:20:28;;;;;;;20.15;8.88;;;;;;;9.14;100.00;100991.53;5576836;31;33787;-66
2023/10/07 03:23:33;;;;;;;17.90;9.48;;;;;;;9.10;100.00;100983.03;5590439;31;33866;-66
2023/10/07 03:26:41;;;;;;;16.85;9.10;;;;;;;9.21;100.00;100978.53;5590371;31;33912;-66
2023/10/07 03:29:57;;;;;;;19.60;9.63;;;;;;;9.20;100.00;100987.50;5590435;31;34544;-66
2023/10/07 03:33:08;;;;;;;19.62;9.02;;;;;;;9.17;100.00;100983.31;5576527;31;33841;-66
2023/10/07 03:39:42;;;;;;;19.27;9.95;;;;;;;9.10;100.00;100985.69;5590309;31;34141;-66
2023/10/07 03:42:45;;;;;;;22.13;9.77;;;;;;;9.07;100.00;100982.50;5576544;31;34973;-66
2023/10/07 03:45:48;;;;;;;17.58;9.98;;;;;;;9.08;100.00;100989.47;5590289;31;33869;-66
2023/10/07 03:48:55;;;;;;;24.73;10.00;;;;;;;9.09;100.00;100991.12;5590307;31;33760;-66
2023/10/07 03:52:12;;;;;;;20.98;9.85;;;;;;;9.14;100.00;100983.59;5590178;31;34103;-66
2023/10/07 03:55:15;;;;;;;18.58;9.77;;;;;;;9.13;100.00;100987.22;5590472;31;33844;-66
2023/10/07 03:58:20;;;;;;;18.67;10.13;;;;;;;9.12;100.00;100991.69;5590290;31;33821;-66
2023/10/07 04:01:26;;;;;;;18.00;9.32;;;;;;;9.10;100.00;100990.16;5590173;31;33952;-66
2023/10/07 04:04:29;;;;;;;20.20;9.95;;;;;;;9.04;100.00;100988.09;5590070;31;33923;-66
2023/10/07 04:07:32;;;;;;;19.80;10.07;;;;;;;8.97;100.00;100989.63;5589949;31;35209;-66
2023/10/07 04:10:43;;;;;;;18.98;9.60;;;;;;;8.93;100.00;100982.94;5589947;31;34694;-66
2023/10/07 04:13:46;;;;;;;20.15;10.18;;;;;;;8.90;100.00;100980.59;5590036;31;34830;-66
2023/10/07 04:16:50;;;;;;;23.42;10.23;;;;;;;9.15;100.00;100986.09;5590049;31;33940;-66
2023/10/07 04:19:53;;;;;;;19.35;10.73;;;;;;;9.24;100.00;100981.75;5590004;31;33903;-66
2023/10/07 04:23:02;;;;;;;20.20;10.00;;;;;;;9.35;100.00;100978.06;5576505;31;33944;-66
2023/10/07 04:26:08;;;;;;;23.23;10.75;;;;;;;9.21;100.00;100979.37;5590288;31;34442;-66
2023/10/07 04:29:14;;;;;;;19.05;10.30;;;;;;;9.10;100.00;100975.09;5575679;31;34458;-66
2023/10/07 04:32:23;;;;;;;20.02;10.52;;;;;;;8.95;100.00;100963.31;5589825;31;33969;-66
2023/10/07 04:35:32;;;;;;;20.92;10.98;;;;;;;8.89;100.00;100960.41;5589784;31;34582;-66
2023/10/07 04:38:56;;;;;;;25.17;11.50;;;;;;;8.88;100.00;100967.50;5589831;31;34115;-66
2023/10/07 04:41:59;;;;;;;23.87;11.57;;;;;;;8.87;100.00;100963.19;5589633;31;34293;-66
2023/10/07 04:48:40;;;;;;;20.77;11.18;;;;;;;8.80;100.00;100955.97;5589718;31;33768;-66
2023/10/07 04:54:48;;;;;;;21.95;11.93;;;;;;;8.75;100.00;100959.03;5589625;31;33879;-66
2023/10/07 05:01:22;;;;;;;25.60;12.23;;;;;;;9.04;100.00;100961.63;5589648;31;33979;-66
2023/10/07 05:04:25;;;;;;;23.50;12.23;;;;;;;9.04;100.00;100959.81;5589609;31;34551;-67
2023/10/07 05:07:28;;;;;;;30.60;11.75;;;;;;;9.33;100.00;100956.22;5589291;31;34554;-66
2023/10/07 05:10:35;;;;;;;24.73;11.73;;;;;;;9.31;100.00;100959.00;5575809;31;34060;-66
2023/10/07 05:13:44;;;;;;;21.10;12.02;;;;;;;9.28;100.00;100964.59;5589530;31;34059;-66
2023/10/07 05:16:48;;;;;;;25.83;12.00;;;;;;;9.50;100.00;100958.91;5589408;31;33847;-66
2023/10/07 05:19:51;;;;;;;23.98;11.43;;;;;;;9.57;100.00;100956.53;5589741;31;33957;-66
2023/10/07 05:22:55;;;;;;;20.42;11.77;;;;;;;9.60;100.00;100962.34;5589427;31;34456;-66
2023/10/07 05:26:03;;;;;;;23.35;11.77;;;;;;;9.74;100.00;100960.19;5575704;31;33790;-66
2023/10/07 05:29:07;;;;;;;21.37;11.80;;;;;;;9.79;100.00;100958.78;5589311;31;34608;-66
2023/10/07 05:32:11;;;;;;;24.08;11.60;;;;;;;9.87;100.00;100961.53;5589420;31;33837;-66
2023/10/07 05:35:18;;;;;;;24.35;11.70;;;;;;;10.13;100.00;100958.97;5589199;31;34004;-66
2023/10/07 05:38:21;;;;;;;24.87;12.43;;;;;;;10.30;100.00;100960.84;5589444;31;33815;-66
2023/10/07 05:41:25;;;;;;;24.02;11.80;;;;;;;10.60;100.00;100961.41;5589032;31;34449;-66
2023/10/07 05:44:28;;;;;;;24.12;11.50;;;;;;;10.87;100.00;100966.59;5575470;31;34002;-66
2023/10/07 05:47:32;;;;;;;21.80;11.27;;;;;;;11.20;100.00;100964.97;5588983;31;33853;-67
2023/10/07 05:50:36;;;;;;;27.33;11.60;;;;;;;11.58;100.00;100969.81;5588849;31;34629;-67
2023/10/07 05:53:41;;;;;;;23.42;10.77;;;;;;;11.86;100.00;100974.94;5589013;31;34021;-66
2023/10/07 05:56:47;;;;;;;23.23;9.95;;;;;;;12.05;100.00;100980.78;5588564;31;33765;-67
2023/10/07 05:59:51;;;;;;;19.62;9.68;;;;;;;12.25;100.00;100977.84;5588415;31;34870;-67
2023/10/07 06:02:55;;;;;;;20.10;10.40;;;;;;;12.51;100.00;100984.69;5574288;31;33866;-67
2023/10/07 06:06:04;;;;;;;47.00;11.55;;;;;;;12.66;100.00;100981.38;5588674;31;33554;-68
2023/10/07 06:09:10;;;;;;;21.92;10.43;;;;;;;12.78;100.00;100980.03;5588930;31;33914;-68
2023/10/07 06:12:15;;;;;;;24.37;9.65;;;;;;;12.88;100.00;100984.19;5588841;31;33917;-67
2023/10/07 06:15:18;;;;;;;24.90;10.30;;;;;;;13.03;100.00;100987.00;5588730;31;34130;-67
2023/10/07 06:18:22;;;;;;;23.73;9.50;;;;;;;13.13;100.00;100984.19;5588296;31;34491;-67
2023/10/07 06:21:28;;;;;;;19.55;9.20;;;;;;;13.24;100.00;100987.31;5575089;31;33771;-67
2023/10/07 06:24:32;;;;;;;27.33;9.45;;;;;;;13.36;100.00;100985.94;5575004;31;33893;-66
2023/10/07 06:27:37;;;;;;;20.98;9.57;;;;;;;13.38;100.00;100989.28;5588653;31;33797;-67
2023/10/07 06:30:42;;;;;;;21.80;9.07;;;;;;;13.46;100.00;100994.56;5588611;31;33867;-67
2023/10/07 06:34:03;;;;;;;22.17;9.13;;;;;;;13.45;100.00;100984.09;5588743;31;34608;-68
2023/10/07 06:37:07;;;;;;;24.08;9.75;;;;;;;13.54;100.00;100992.91;5588532;31;34574;-67
2023/10/07 06:40:24;;;;;;;19.50;9.18;;;;;;;13.57;100.00;100988.06;5588170;31;34184;-67
2023/10/07 06:43:27;;;;;;;19.42;9.07;;;;;;;13.75;100.00;100995.81;5588293;31;33942;-67
2023/10/07 06:46:40;;;;;;;27.48;9.95;;;;;;;13.87;100.00;100991.75;5573972;31;34751;-67
2023/10/07 06:49:44;;;;;;;24.60;9.30;;;;;;;14.03;100.00;100999.69;5588597;31;33817;-67
2023/10/07 06:52:47;;;;;;;16.90;9.20;;;;;;;14.14;100.00;100996.59;5589670;31;33997;-67
2023/10/07 06:55:53;;;;;;;30.85;9.10;;;;;;;14.33;100.00;100996.16;5590670;31;34523;-67
2023/10/07 06:58:59;;;;;;;16.73;9.02;;;;;;;14.47;100.00;100996.44;5590667;31;34534;-67
2023/10/07 07:02:06;;;;;;;22.48;8.85;;;;;;;14.50;100.00;100996.06;5590615;31;33888;-67
2023/10/07 07:05:16;;;;;;;19.83;9.10;;;;;;;14.44;100.00;100986.09;5590448;31;33817;-67
2023/10/07 07:08:22;;;;;;;20.70;8.93;;;;;;;14.44;100.00;100988.78;5590489;31;34488;-67
2023/10/07 07:11:25;;;;;;;19.92;9.23;;;;;;;14.41;100.00;100989.97;5590610;31;35223;-67
2023/10/07 07:14:30;;;;;;;18.75;8.90;;;;;;;14.45;100.00;100980.59;5590631;31;33816;-67
2023/10/07 07:17:36;;;;;;;22.10;9.07;;;;;;;14.70;100.00;100982.06;5590376;31;34692;-67
2023/10/07 07:20:49;;;;;;;23.83;8.65;;;;;;;14.99;100.00;100983.16;5590769;31;33800;-66
2023/10/07 07:23:52;;;;;;;23.17;8.60;;;;;;;15.40;100.00;100992.38;5590361;31;34471;-67
2023/10/07 07:26:56;;;;;;;23.10;8.73;;;;;;;15.57;100.00;100993.91;5590389;31;33796;-67
2023/10/07 07:30:07;;;;;;;18.80;8.63;;;;;;;15.71;100.00;100992.25;5590273;31;33839;-67
2023/10/07 07:33:15;;;;;;;16.98;8.70;;;;;;;16.36;100.00;100984.12;5590159;31;33934;-67
2023/10/07 07:36:37;;;;;;;18.17;8.10;;;;;;;17.66;100.00;100996.13;5590347;31;34451;-67
2023/10/07 07:39:40;;;;;;;18.27;8.05;;;;;;;19.00;100.00;100986.31;5590098;31;34596;-67
2023/10/07 07:42:55;;;;;;;16.50;7.68;;;;;;;20.15;90.74;100985.56;5589696;31;33874;-67
2023/10/07 07:46:18;;;;;;;21.33;7.82;;;;;;;21.29;77.40;100996.19;5575959;31;34494;-68
2023/10/07 07:49:27;;;;;;;17.37;7.30;;;;;;;21.84;74.12;100997.00;5590548;31;34025;-68
2023/10/07 07:52:32;;;;;;;17.53;7.77;;;;;;;21.38;75.43;101003.75;5590003;31;33837;-68
2023/10/07 07:55:43;;;;;;;23.85;7.32;;;;;;;21.75;75.92;100999.19;5590190;31;33899;-68
2023/10/07 07:58:50;;;;;;;21.08;9.00;;;;;;;22.07;67.82;100995.25;5589964;31;34374;-68
2023/10/07 08:01:53;;;;;;;16.73;7.10;;;;;;;21.88;72.47;101000.91;5589985;31;34521;-68
2023/10/07 08:05:02;;;;;;;17.60;7.07;;;;;;;21.78;67.74;101001.44;5589116;31;33791;-68
2023/10/07 08:08:18;;;;;;;12.63;6.80;;;;;;;24.48;57.81;100997.62;5589513;31;34586;-68
2023/10/07 08:11:22;;;;;;;16.37;6.60;;;;;;;24.95;53.06;101010.91;5589755;31;34457;-68
2023/10/07 08:14:24;;;;;;;15.30;6.15;;;;;;;25.35;53.13;101000.69;5589830;31;34642;-69
2023/10/07 08:17:27;;;;;;;12.90;5.75;;;;;;;26.15;48.51;100999.25;5589857;31;33782;-69
2023/10/07 08:20:37;;;;;;;10.32;4.85;;;;;;;25.88;48.74;100988.34;5589658;31;34116;-68
2023/10/07 08:23:41;;;;;;;12.40;5.78;;;;;;;23.18;54.00;100982.97;5589646;31;33916;-69
2023/10/07 08:26:48;;;;;;;19.60;6.20;;;;;;;23.19;55.53;100990.03;5589862;31;34446;-69
2023/10/07 08:29:53;;;;;;;21.50;6.07;;;;;;;23.45;54.55;100981.44;5589571;31;34646;-68
2023/10/07 08:32:56;;;;;;;12.37;5.90;;;;;;;22.58;56.37;100974.16;5589637;31;33900;-68
2023/10/07 08:36:07;;;;;;;13.32;6.20;;;;;;;22.51;58.67;100974.28;5589502;31;34462;-69
2023/10/07 08:39:10;;;;;;;11.82;5.82;;;;;;;22.00;60.08;100972.94;5589576;31;33757;-67
2023/10/07 08:42:17;;;;;;;13.35;6.03;;;;;;;21.55;63.24;100969.72;5589378;31;33873;-67
2023/10/07 08:45:23;;;;;;;12.15;5.45;;;;;;;21.21;65.49;100965.72;5589267;31;33881;-67
2023/10/07 08:48:28;;;;;;;16.75;6.15;;;;;;;20.67;74.51;100960.19;5589073;31;33836;-67
2023/10/07 08:51:40;;;;;;;16.60;5.85;;;;;;;20.46;70.45;100968.63;5588841;31;35420;-67
2023/10/07 08:54:47;;;;;;;11.00;5.15;;;;;;;20.18;71.22;100956.34;5589160;31;34040;-67
2023/10/07 08:57:52;;;;;;;9.65;4.70;;;;;;;20.41;71.15;100963.06;5589083;31;33576;-67
2023/10/07 09:00:56;;;;;;;13.07;5.07;;;;;;;20.19;69.75;100966.06;5588772;31;33878;-67
2023/10/07 09:04:01;;;;;;;10.35;4.50;;;;;;;20.28;67.64;100962.06;5589510;31;34862;-67
2023/10/07 09:07:08;;;;;;;11.20;5.18;;;;;;;20.28;69.22;100967.47;5589583;31;34472;-68
2023/10/07 09:10:15;;;;;;;11.38;4.70;;;;;;;20.08;70.09;100971.31;5589577;31;33890;-67
2023/10/07 09:13:29;;;;;;;9.63;4.60;;;;;;;19.58;71.76;100971.12;5575496;31;34779;-66
2023/10/07 09:16:33;;;;;;;14.50;4.82;;;;;;;19.94;71.11;100963.28;5588258;31;34773;-67
2023/10/07 09:19:36;;;;;;;13.52;4.93;;;;;;;19.99;68.68;100959.97;5588655;31;33923;-67
2023/10/07 09:22:45;;;;;;;8.57;4.65;;;;;;;20.28;67.23;100963.97;5574819;31;34159;-68
2023/10/07 09:25:52;;;;;;;14.35;4.68;;;;;;;20.31;65.86;100953.59;5588718;31;33627;-68
2023/10/07 09:28:58;;;;;;;10.52;4.60;;;;;;;20.32;67.12;100951.72;5588961;31;33800;-67
2023/10/07 09:32:16;;;;;;;11.30;4.70;;;;;;;20.47;64.33;100948.72;5589294;31;33979;-68
2023/10/07 09:35:22;;;;;;;9.15;4.62;;;;;;;20.80;65.07;100944.72;5589303;31;34513;-67
2023/10/07 09:41:36;;;;;;;9.18;4.32;;;;;;;20.42;62.60;100943.16;5589264;31;34310;-67
2023/10/07 09:44:41;;;;;;;12.07;4.30;;;;;;;20.66;62.62;100943.19;5589345;31;33734;-67
2023/10/07 09:47:44;;;;;;;13.85;4.68;;;;;;;20.69;61.66;100944.59;5589026;31;34522;-67
2023/10/07 09:50:55;;;;;;;11.00;4.18;;;;;;;20.68;62.80;100946.47;5589299;31;33994;-67
2023/10/07 09:54:06;;;;;;;15.45;4.00;;;;;;;20.40;59.01;100946.06;5588830;31;33963;-66
2023/10/07 09:57:24;;;;;;;14.85;4.25;;;;;;;20.24;57.15;100944.69;5588974;31;34086;-66
2023/10/07 10:03:59;;;;;;;11.35;4.15;;;;;;;20.30;57.54;100937.59;5588782;31;34030;-67
2023/10/07 10:07:10;;;;;;;11.05;4.37;;;;;;;20.10;58.49;100937.72;5575574;31;33784;-67
2023/10/07 10:10:14;;;;;;;9.45;4.50;;;;;;;20.25;58.61;100942.81;5574915;31;34550;-67
2023/10/07 10:16:54;;;;;;;11.07;4.85;;;;;;;20.69;57.48;100926.56;5588306;31;33745;-66
2023/10/07 10:20:13;;;;;;;10.10;3.92;;;;;;;20.48;57.18;100920.75;5575338;31;33819;-67
2023/10/07 10:23:19;;;;;;;7.90;3.90;;;;;;;20.69;57.53;100923.03;5588496;31;34676;-67
2023/10/07 10:26:24;;;;;;;7.25;3.83;;;;;;;20.67;56.41;100920.53;5572758;31;34716;-66
2023/10/07 10:29:31;;;;;;;8.02;3.90;;;;;;;20.88;55.66;100918.50;5588232;31;33731;-66
2023/10/07 10:32:36;;;;;;;8.90;3.90;;;;;;;21.22;54.32;100920.66;5574707;31;33824;-66
2023/10/07 10:35:40;;;;;;;7.78;4.28;;;;;;;21.21;52.43;100911.75;5588369;31;33921;-67
2023/10/07 10:38:45;;;;;;;12.70;4.20;;;;;;;21.28;51.27;100916.25;5588049;31;33844;-66
2023/10/07 10:41:49;;;;;;;8.57;4.05;;;;;;;21.33;51.43;100913.72;5574432;31;33842;-68
2023/10/07 10:44:53;;;;;;;7.82;4.00;;;;;;;21.47;50.13;100921.44;5588068;31;34538;-65
2023/10/07 10:47:59;;;;;;;9.40;4.40;;;;;;;21.74;49.21;100911.09;5587881;31;33931;-66
2023/10/07 10:51:05;;;;;;;6.55;3.97;;;;;;;22.20;49.88;100896.97;5588037;31;34756;-67
2023/10/07 10:54:09;;;;;;;9.55;3.75;;;;;;;22.36;48.73;100907.13;5574322;31;33933;-66
2023/10/07 10:57:19;;;;;;;11.45;4.32;;;;;;;22.06;48.48;100898.25;5587629;31;34705;-65
2023/10/07 11:00:22;;;;;;;8.20;3.97;;;;;;;23.65;45.52;100897.91;5587762;31;34540;-66
2023/10/07 11:03:25;;;;;;;7.97;4.07;;;;;;;23.69;45.46;100884.69;5588003;31;34835;-67
2023/10/07 11:06:29;;;;;;;9.00;4.05;;;;;;;24.38;43.79;100885.41;5573998;31;34497;-67
2023/10/07 11:09:37;;;;;;;8.38;4.05;;;;;;;24.30;42.46;100873.09;5587687;31;33965;-68
2023/10/07 11:12:45;;;;;;;10.10;4.13;;;;;;;24.26;41.47;100866.50;5587680;31;33726;-67
2023/10/07 11:16:16;;;;;;;9.77;4.05;;;;;;;24.61;41.31;100866.25;5587655;31;33733;-68
2023/10/07 11:19:19;;;;;;;13.68;4.10;;;;;;;23.52;40.90;100859.44;5587451;31;33789;-67
2023/10/07 11:22:22;;;;;;;8.90;3.72;;;;;;;23.44;43.19;100857.91;5587763;31;34098;-67
2023/10/07 11:25:27;;;;;;;10.10;3.80;;;;;;;22.95;43.47;100852.00;5560950;31;33864;-67
2023/10/07 11:28:33;;;;;;;10.32;3.83;;;;;;;23.18;44.02;100851.16;5587225;31;34633;-67
2023/10/07 11:31:37;;;;;;;8.70;3.50;;;;;;;23.30;43.31;100835.69;5587411;31;33822;-67
2023/10/07 11:34:42;;;;;;;6.78;3.40;;;;;;;23.03;44.57;100836.47;5587243;31;34232;-67
2023/10/07 11:37:57;;;;;;;7.30;3.58;;;;;;;23.55;44.03;100838.13;5574262;31;34595;-67
2023/10/07 11:41:01;;;;;;;9.20;3.80;;;;;;;23.39;44.00;100831.53;5590072;31;34583;-67
2023/10/07 11:44:04;;;;;;;6.35;3.53;;;;;;;24.51;42.58;100831.66;5589841;31;33900;-66
2023/10/07 11:47:09;;;;;;;7.85;3.75;;;;;;;25.35;40.70;100828.75;5589920;31;34189;-67
2023/10/07 11:50:12;;;;;;;6.12;3.67;;;;;;;26.07;40.17;100829.22;5590082;31;33769;-67
2023/10/07 11:53:15;;;;;;;10.15;4.03;;;;;;;27.97;36.82;100829.66;5576491;31;33817;-67
2023/10/07 11:56:21;;;;;;;10.20;3.53;;;;;;;28.80;35.22;100829.34;5590163;31;33830;-67
2023/10/07 11:59:24;;;;;;;5.37;3.22;;;;;;;29.11;34.19;100822.69;5589728;31;34183;-66
2023/10/07 12:02:28;;;;;;;8.23;3.55;;;;;;;29.06;33.00;100803.56;5590136;31;33950;-69
2023/10/07 12:05:31;;;;;;;6.53;3.15;;;;;;;30.27;31.88;100818.41;5589985;31;34430;-68
2023/10/07 12:08:34;;;;;;;6.45;3.42;;;;;;;31.88;30.09;100803.84;5589573;31;33842;-68
2023/10/07 12:11:38;;;;;;;7.37;2.92;;;;;;;33.93;27.58;100801.94;5589737;31;33794;-69
2023/10/07 12:14:41;;;;;;;7.25;2.53;;;;;;;34.30;26.75;100800.72;5589908;31;33854;-67
2023/10/07 12:17:45;;;;;;;5.10;2.67;;;;;;;30.51;31.90;100777.41;5576167;31;33784;-68
2023/10/07 12:20:50;;;;;;;8.35;2.78;;;;;;;29.33;33.65;100786.81;5590250;31;34436;-68
2023/10/07 12:23:54;;;;;;;5.43;2.87;;;;;;;29.37;33.33;100772.28;5589691;31;34663;-67
2023/10/07 12:26:59;;;;;;;5.65;2.75;;;;;;;28.02;35.34;100771.56;5589834;31;34726;-67
2023/10/07 12:30:03;;;;;;;4.20;2.60;;;;;;;27.02;37.13;100783.88;5589854;31;34242;-68
2023/10/07 12:33:08;;;;;;;6.90;3.10;;;;;;;27.09;38.40;100773.56;5589654;31;34591;-67
2023/10/07 12:36:22;;;;;;;10.02;3.00;;;;;;;25.99;39.98;100772.63;5589714;31;33757;-67
2023/10/07 12:39:30;;;;;;;4.97;2.50;;;;;;;24.80;41.99;100774.53;5589314;31;34502;-67
2023/10/07 12:42:33;;;;;;;6.45;2.90;;;;;;;24.88;43.59;100774.97;5575623;31;33979;-67
2023/10/07 12:45:36;;;;;;;11.18;3.10;;;;;;;24.52;44.69;100760.06;5589696;31;33909;-69
2023/10/07 12:48:42;;;;;;;8.05;3.08;;;;;;;24.30;45.25;100764.62;5562389;31;33774;-66
2023/10/07 12:51:46;;;;;;;7.50;3.00;;;;;;;24.20;44.94;100757.19;5589334;31;33974;-68
2023/10/07 12:54:48;;;;;;;7.18;3.15;;;;;;;23.89;46.00;100754.19;5589530;31;33768;-66
2023/10/07 12:57:51;;;;;;;7.72;2.92;;;;;;;23.96;46.67;100752.97;5575634;31;33773;-66
2023/10/07 13:00:55;;;;;;;7.80;3.17;;;;;;;23.56;46.93;100744.97;5589513;31;34757;-68
2023/10/07 13:03:58;;;;;;;6.62;2.83;;;;;;;23.72;47.25;100743.34;5589373;31;34625;-66
2023/10/07 13:07:05;;;;;;;6.18;3.10;;;;;;;23.53;47.31;100752.78;5589420;31;34003;-67
2023/10/07 13:10:11;;;;;;;6.97;3.12;;;;;;;23.66;47.38;100763.28;5589413;31;33964;-67
2023/10/07 13:13:14;;;;;;;7.32;2.90;;;;;;;23.18;48.57;100745.59;5588836;31;34620;-67
2023/10/07 13:16:17;;;;;;;6.53;3.45;;;;;;;22.95;48.36;100754.59;5589193;31;34545;-67
2023/10/07 13:19:26;;;;;;;7.47;3.20;;;;;;;22.76;48.73;100763.13;5575330;31;34045;-67
2023/10/07 13:22:28;;;;;;;5.18;3.30;;;;;;;22.73;49.10;100755.50;5575316;31;33757;-68
2023/10/07 13:25:35;;;;;;;7.57;3.05;;;;;;;22.82;49.33;100757.59;5575629;31;33860;-67
2023/10/07 13:28:38;;;;;;;7.65;3.33;;;;;;;22.99;48.29;100748.72;5589314;31;33903;-66
2023/10/07 13:31:42;;;;;;;6.53;3.05;;;;;;;22.61;48.68;100738.44;5588899;31;33978;-67
2023/10/07 13:34:45;;;;;;;7.95;3.50;;;;;;;22.44;48.71;100741.87;5589014;31;34565;-67
2023/10/07 13:37:50;;;;;;;5.97;3.30;;;;;;;22.32;49.23;100734.81;5588968;31;34841;-67
2023/10/07 13:40:52;;;;;;;6.37;3.15;;;;;;;22.36;48.94;100736.81;5589111;31;33990;-68
2023/10/07 13:43:55;;;;;;;8.18;3.45;;;;;;;22.44;49.22;100741.87;5588996;31;33999;-66
2023/10/07 13:47:00;;;;;;;7.80;3.15;;;;;;;22.49;49.18;100741.97;5575504;31;34391;-66
2023/10/07 13:50:13;;;;;;;5.40;3.12;;;;;;;22.36;49.99;100736.00;5588909;31;33812;-66
2023/10/07 13:53:16;;;;;;;8.25;2.97;;;;;;;22.34;49.39;100736.22;5588756;31;35280;-66
2023/10/07 13:56:44;;;;;;;9.23;3.37;;;;;;;22.29;50.05;100746.09;5588793;31;33886;-65
2023/10/07 13:59:47;;;;;;;7.53;3.47;;;;;;;22.20;49.66;100740.22;5588418;31;33828;-66
2023/10/07 14:02:51;;;;;;;10.43;2.95;;;;;;;22.21;50.13;100739.19;5588283;31;34831;-65
2023/10/07 14:06:01;;;;;;;7.43;3.50;;;;;;;22.16;50.02;100728.25;5588914;31;33848;-66
2023/10/07 14:09:15;;;;;;;;;;;;;;;22.18;50.82;100734.22;5589199;31;33907;-67
2023/10/07 14:12:18;;;;;;;7.28;3.30;;;;;;;22.23;50.31;100730.81;5588490;31;34091;-67
2023/10/07 14:15:21;;;;;;;5.05;3.30;;;;;;;22.17;50.68;100718.25;5574690;31;34561;-67
2023/10/07 14:18:24;;;;;;;10.23;3.75;;;;;;;22.29;50.70;100713.66;5588516;31;33864;-67
2023/10/07 14:21:27;;;;;;;7.93;3.30;;;;;;;22.28;50.06;100714.72;5588443;31;33871;-67
2023/10/07 14:24:31;;;;;;;7.82;3.25;;;;;;;22.20;50.35;100710.50;5588206;31;34768;-67
2023/10/07 14:27:36;;;;;;;7.65;3.67;;;;;;;22.28;49.77;100706.59;5588297;31;33780;-65
2023/10/07 14:30:39;;;;;;;10.80;3.58;;;;;;;22.17;49.29;100693.94;5588245;31;35018;-66
2023/10/07 14:33:41;;;;;;;10.90;4.00;;;;;;;22.12;48.59;100694.66;5587767;31;34931;-67
2023/10/07 14:36:45;;;;;;;10.38;3.53;;;;;;;22.16;48.62;100690.41;5588227;31;33865;-66
2023/10/07 14:39:51;;;;;;;9.50;3.72;;;;;;;22.20;49.33;100683.47;5587721;31;33780;-66
2023/10/07 14:42:59;;;;;;;9.48;3.80;;;;;;;22.21;49.31;100689.72;5587902;31;33882;-67
2023/10/07 14:46:04;;;;;;;10.95;3.78;;;;;;;22.03;49.42;100683.34;5587784;31;34023;-67
2023/10/07 14:49:08;;;;;;;9.10;3.58;;;;;;;21.82;49.74;100686.62;5587716;31;33878;-67